Time,TemperatureF,DewpointF,PressureIn,WindDirection,WindDirectionDegrees,WindSpeedMPH,WindSpeedGustMPH,Humidity,HourlyPrecipIn,Conditions,Clouds,dailyrainin,SoftwareType,DateUTC
2013-07-23 00:22:00,81.0,-99.9,-100.00,SSW,200,10.0,-999.0,111,0.00,,,-99.99,,2013-07-23 05:22:00,
2013-07-23 00:33:00,81.0,-99.9,-100.00,SSW,200,10.0,-999.0,111,0.00,,,-99.99,,2013-07-23 05:33:00,
2013-07-23 00:44:00,81.0,-99.9,-100.00,SSW,200,10.0,-999.0,111,0.00,,,-99.99,,2013-07-23 05:44:00,
2013-07-23 01:22:00,82.0,-99.9,-100.00,SW,233,10.0,-999.0,117,0.00,,,-99.99,,2013-07-23 06:22:00,
2013-07-23 01:33:00,82.0,-99.9,-100.00,SW,233,10.0,-999.0,117,0.00,,,-99.99,,2013-07-23 06:33:00,
2013-07-23 01:42:00,82.0,-99.9,-100.00,SW,233,10.0,-999.0,117,0.00,,,-99.99,,2013-07-23 06:42:00,
2013-07-23 02:22:00,81.0,-99.9,-100.00,WSW,240,10.0,-999.0,116,0.00,,,-99.99,,2013-07-23 07:22:00,
2013-07-23 02:33:00,81.0,-99.9,-100.00,WSW,240,10.0,-999.0,116,0.00,,,-99.99,,2013-07-23 07:33:00,
2013-07-23 02:42:00,81.0,-99.9,-100.00,WSW,240,10.0,-999.0,116,0.00,,,-99.99,,2013-07-23 07:42:00,
2013-07-23 03:22:00,81.0,-99.9,-100.00,WSW,247,10.0,-999.0,114,0.00,,,-99.99,,2013-07-23 08:22:00,
2013-07-23 03:33:00,81.0,-99.9,-100.00,WSW,247,10.0,-999.0,114,0.00,,,-99.99,,2013-07-23 08:33:00,
2013-07-23 03:43:00,81.0,-99.9,-100.00,WSW,247,10.0,-999.0,114,0.00,,,-99.99,,2013-07-23 08:43:00,
2013-07-23 04:22:00,81.0,-99.9,-100.00,West,272,9.0,-999.0,111,0.00,,,-99.99,,2013-07-23 09:22:00,
2013-07-23 04:33:00,81.0,-99.9,-100.00,West,272,9.0,-999.0,111,0.00,,,-99.99,,2013-07-23 09:33:00,
2013-07-23 04:43:00,81.0,-99.9,-100.00,West,272,9.0,-999.0,111,0.00,,,-99.99,,2013-07-23 09:43:00,
2013-07-23 05:22:00,80.0,-99.9,-100.00,West,272,8.0,-999.0,114,0.00,,,-99.99,,2013-07-23 10:22:00,
2013-07-23 05:32:00,80.0,-99.9,-100.00,West,272,8.0,-999.0,114,0.00,,,-99.99,,2013-07-23 10:32:00,
2013-07-23 05:44:00,80.0,-99.9,-100.00,West,272,8.0,-999.0,114,0.00,,,-99.99,,2013-07-23 10:44:00,
2013-07-23 06:22:00,80.0,-99.9,-100.00,WNW,287,6.0,-999.0,117,0.00,,,-99.99,,2013-07-23 11:22:00,
2013-07-23 06:32:00,80.0,-99.9,-100.00,WNW,287,6.0,-999.0,117,0.00,,,-99.99,,2013-07-23 11:32:00,
2013-07-23 06:43:00,80.0,-99.9,-100.00,WNW,287,6.0,-999.0,117,0.00,,,-99.99,,2013-07-23 11:43:00,
2013-07-23 07:22:00,80.0,-99.9,-100.00,WNW,290,5.0,-999.0,118,0.00,,,-99.99,,2013-07-23 12:22:00,
2013-07-23 07:33:00,80.0,-99.9,-100.00,WNW,290,5.0,-999.0,118,0.00,,,-99.99,,2013-07-23 12:33:00,
2013-07-23 07:43:00,80.0,-99.9,-100.00,WNW,290,5.0,-999.0,118,0.00,,,-99.99,,2013-07-23 12:43:00,
2013-07-23 08:22:00,81.0,-99.9,-100.00,West,279,8.0,-999.0,109,0.00,,,-99.99,,2013-07-23 13:22:00,
2013-07-23 08:32:00,81.0,-99.9,-100.00,West,279,8.0,-999.0,109,0.00,,,-99.99,,2013-07-23 13:32:00,
2013-07-23 08:43:00,81.0,-99.9,-100.00,West,279,8.0,-999.0,109,0.00,,,-99.99,,2013-07-23 13:43:00,
2013-07-23 09:22:00,83.0,80.0,-100.00,West,280,11.0,-999.0,90,0.00,,,-99.99,,2013-07-23 14:22:00,
2013-07-23 09:33:00,83.0,80.0,-100.00,West,280,11.0,-999.0,90,0.00,,,-99.99,,2013-07-23 14:33:00,
2013-07-23 09:44:00,83.0,80.0,-100.00,West,280,11.0,-999.0,90,0.00,,,-99.99,,2013-07-23 14:44:00,
2013-07-23 10:24:00,84.0,78.0,-100.00,West,277,10.0,-999.0,82,0.00,,,-99.99,,2013-07-23 15:24:00,
2013-07-23 10:32:00,84.0,78.0,-100.00,West,277,10.0,-999.0,82,0.00,,,-99.99,,2013-07-23 15:32:00,
2013-07-23 10:43:00,84.0,78.0,-100.00,West,277,10.0,-999.0,82,0.00,,,-99.99,,2013-07-23 15:43:00,
2013-07-23 11:22:00,84.0,78.0,-100.00,West,278,11.0,-999.0,81,0.00,,,-99.99,,2013-07-23 16:22:00,
2013-07-23 11:33:00,84.0,78.0,-100.00,West,278,11.0,-999.0,81,0.00,,,-99.99,,2013-07-23 16:33:00,
2013-07-23 11:43:00,84.0,78.0,-100.00,West,278,11.0,-999.0,81,0.00,,,-99.99,,2013-07-23 16:43:00,
2013-07-23 12:22:00,86.0,78.0,-100.00,West,260,13.0,-999.0,77,0.00,,,-99.99,,2013-07-23 17:22:00,
2013-07-23 12:32:00,86.0,78.0,-100.00,West,260,13.0,-999.0,77,0.00,,,-99.99,,2013-07-23 17:32:00,
2013-07-23 12:42:00,86.0,78.0,-100.00,West,260,13.0,-999.0,77,0.00,,,-99.99,,2013-07-23 17:42:00,
2013-07-23 12:45:00,86.0,79.0,-100.00,WSW,258,13.0,-999.0,78,0.00,,,-99.99,,2013-07-23 17:45:00,
2013-07-23 13:24:00,86.0,79.0,-100.00,WSW,258,13.0,-999.0,78,0.00,,,-99.99,,2013-07-23 18:24:00,
2013-07-23 13:34:00,86.0,79.0,-100.00,WSW,258,13.0,-999.0,78,0.00,,,-99.99,,2013-07-23 18:34:00,
2013-07-23 13:45:00,86.0,79.0,-100.00,WSW,248,13.0,-999.0,81,0.00,,,-99.99,,2013-07-23 18:45:00,
2013-07-23 14:27:00,86.0,79.0,-100.00,WSW,248,13.0,-999.0,81,0.00,,,-99.99,,2013-07-23 19:27:00,
2013-07-23 14:33:00,86.0,79.0,-100.00,WSW,248,13.0,-999.0,81,0.00,,,-99.99,,2013-07-23 19:33:00,
2013-07-23 14:45:00,87.0,78.0,-100.00,WSW,245,16.0,-999.0,74,0.00,,,-99.99,,2013-07-23 19:45:00,
2013-07-23 15:23:00,87.0,78.0,-100.00,WSW,245,16.0,-999.0,74,0.00,,,-99.99,,2013-07-23 20:23:00,
2013-07-23 15:34:00,87.0,78.0,-100.00,WSW,245,16.0,-999.0,74,0.00,,,-99.99,,2013-07-23 20:34:00,
2013-07-23 15:45:00,88.0,77.0,-100.00,WSW,247,15.0,-999.0,71,0.00,,,-99.99,,2013-07-23 20:45:00,
2013-07-23 16:23:00,88.0,77.0,-100.00,WSW,247,15.0,-999.0,71,0.00,,,-99.99,,2013-07-23 21:23:00,
2013-07-23 16:36:00,88.0,77.0,-100.00,WSW,247,15.0,-999.0,71,0.00,,,-99.99,,2013-07-23 21:36:00,
2013-07-23 16:45:00,87.0,81.0,-100.00,SW,224,15.0,-999.0,82,0.00,,,-99.99,,2013-07-23 21:45:00,
2013-07-23 17:24:00,87.0,81.0,-100.00,SW,224,15.0,-999.0,82,0.00,,,-99.99,,2013-07-23 22:24:00,
2013-07-23 17:34:00,87.0,81.0,-100.00,SW,224,15.0,-999.0,82,0.00,,,-99.99,,2013-07-23 22:34:00,
2013-07-23 18:24:00,86.0,82.0,-100.00,SW,226,15.0,-999.0,88,0.00,,,-99.99,,2013-07-23 23:24:00,
2013-07-23 18:35:00,86.0,82.0,-100.00,SW,226,15.0,-999.0,88,0.00,,,-99.99,,2013-07-23 23:35:00,
2013-07-23 18:44:00,86.0,82.0,-100.00,SW,226,15.0,-999.0,88,0.00,,,-99.99,,2013-07-23 23:44:00,
2013-07-23 19:26:00,86.0,82.0,-100.00,SW,226,12.0,-999.0,89,0.00,,,-99.99,,2013-07-24 00:26:00,
2013-07-23 19:34:00,86.0,82.0,-100.00,SW,226,12.0,-999.0,89,0.00,,,-99.99,,2013-07-24 00:34:00,
2013-07-23 20:24:00,85.0,82.0,-100.00,SW,221,11.0,-999.0,91,0.00,,,-99.99,,2013-07-24 01:24:00,
2013-07-23 20:33:00,85.0,82.0,-100.00,SW,221,11.0,-999.0,91,0.00,,,-99.99,,2013-07-24 01:33:00,
2013-07-23 20:45:00,84.0,83.0,-100.00,SW,225,11.0,-999.0,94,0.00,,,-99.99,,2013-07-24 01:45:00,
2013-07-23 21:27:00,84.0,83.0,-100.00,SW,225,11.0,-999.0,94,0.00,,,-99.99,,2013-07-24 02:27:00,
2013-07-23 21:38:00,84.0,83.0,-100.00,SW,225,11.0,-999.0,94,0.00,,,-99.99,,2013-07-24 02:38:00,
2013-07-23 21:45:00,84.0,83.0,-100.00,West,261,6.0,-999.0,98,0.00,,,-99.99,,2013-07-24 02:45:00,
2013-07-23 22:24:00,84.0,83.0,-100.00,West,261,6.0,-999.0,98,0.00,,,-99.99,,2013-07-24 03:24:00,
2013-07-23 22:37:00,84.0,83.0,-100.00,West,261,6.0,-999.0,98,0.00,,,-99.99,,2013-07-24 03:37:00,
2013-07-23 23:22:00,83.0,80.0,-100.00,West,259,10.0,-999.0,90,0.00,,,-99.99,,2013-07-24 04:22:00,
2013-07-23 23:32:00,83.0,80.0,-100.00,West,259,10.0,-999.0,90,0.00,,,-99.99,,2013-07-24 04:32:00,
2013-07-23 23:43:00,83.0,80.0,-100.00,West,259,10.0,-999.0,90,0.00,,,-99.99,,2013-07-24 04:43:00,